sensor_id;sensor_type;location;lat;lon;timestamp;P1;durP1;ratioP1;P2;durP2;ratioP2
6987;SDS011;3534;49.960;8.018;2023-05-16T00:01:45;28.23;;;16.70;;
6987;SDS011;3534;49.960;8.018;2023-05-16T00:04:12;17.53;;;14.50;;
6987;SDS011;3534;49.960;8.018;2023-05-16T00:06:38;22.23;;;15.53;;
6987;SDS011;3534;49.960;8.018;2023-05-16T00:09:07;25.83;;;15.83;;
6987;SDS011;3534;49.960;8.018;2023-05-16T00:11:33;24.80;;;14.97;;
6987;SDS011;3534;49.960;8.018;2023-05-16T00:14:00;24.67;;;15.73;;
6987;SDS011;3534;49.960;8.018;2023-05-16T00:16:27;20.20;;;13.80;;
6987;SDS011;3534;49.960;8.018;2023-05-16T00:18:54;21.67;;;14.33;;
6987;SDS011;3534;49.960;8.018;2023-05-16T00:21:21;21.77;;;15.60;;
6987;SDS011;3534;49.960;8.018;2023-05-16T00:23:48;22.10;;;15.30;;
6987;SDS011;3534;49.960;8.018;2023-05-16T00:26:17;27.20;;;16.50;;
6987;SDS011;3534;49.960;8.018;2023-05-16T00:28:44;23.13;;;15.33;;
6987;SDS011;3534;49.960;8.018;2023-05-16T00:31:11;19.93;;;14.17;;
6987;SDS011;3534;49.960;8.018;2023-05-16T00:33:38;26.00;;;16.37;;
6987;SDS011;3534;49.960;8.018;2023-05-16T00:36:05;24.43;;;14.80;;
6987;SDS011;3534;49.960;8.018;2023-05-16T00:38:32;22.20;;;14.60;;
6987;SDS011;3534;49.960;8.018;2023-05-16T00:40:59;29.93;;;15.67;;
6987;SDS011;3534;49.960;8.018;2023-05-16T00:43:27;17.60;;;13.10;;
6987;SDS011;3534;49.960;8.018;2023-05-16T00:45:53;24.60;;;15.00;;
6987;SDS011;3534;49.960;8.018;2023-05-16T00:48:22;21.47;;;13.83;;
6987;SDS011;3534;49.960;8.018;2023-05-16T00:50:48;22.33;;;13.03;;
6987;SDS011;3534;49.960;8.018;2023-05-16T00:53:16;26.17;;;15.13;;
6987;SDS011;3534;49.960;8.018;2023-05-16T00:55:43;24.40;;;14.30;;
6987;SDS011;3534;49.960;8.018;2023-05-16T00:58:10;23.90;;;14.63;;
6987;SDS011;3534;49.960;8.018;2023-05-16T01:00:39;24.23;;;14.13;;
6987;SDS011;3534;49.960;8.018;2023-05-16T01:03:06;18.80;;;13.20;;
6987;SDS011;3534;49.960;8.018;2023-05-16T01:05:33;26.83;;;16.00;;
6987;SDS011;3534;49.960;8.018;2023-05-16T01:08:00;21.43;;;13.90;;
6987;SDS011;3534;49.960;8.018;2023-05-16T01:10:27;19.53;;;12.90;;
6987;SDS011;3534;49.960;8.018;2023-05-16T01:13:04;25.80;;;13.33;;
6987;SDS011;3534;49.960;8.018;2023-05-16T01:15:38;19.53;;;12.07;;
6987;SDS011;3534;49.960;8.018;2023-05-16T01:18:14;17.17;;;11.30;;
6987;SDS011;3534;49.960;8.018;2023-05-16T01:20:50;21.70;;;13.20;;
6987;SDS011;3534;49.960;8.018;2023-05-16T01:23:26;16.13;;;11.30;;
6987;SDS011;3534;49.960;8.018;2023-05-16T01:26:17;25.03;;;13.60;;
6987;SDS011;3534;49.960;8.018;2023-05-16T01:28:46;20.20;;;12.53;;
6987;SDS011;3534;49.960;8.018;2023-05-16T01:31:14;20.70;;;11.70;;
6987;SDS011;3534;49.960;8.018;2023-05-16T01:33:41;22.00;;;13.00;;
6987;SDS011;3534;49.960;8.018;2023-05-16T01:36:10;21.53;;;13.53;;
6987;SDS011;3534;49.960;8.018;2023-05-16T01:38:43;25.60;;;15.40;;
6987;SDS011;3534;49.960;8.018;2023-05-16T01:41:20;37.13;;;14.80;;
6987;SDS011;3534;49.960;8.018;2023-05-16T01:43:51;28.90;;;15.03;;
6987;SDS011;3534;49.960;8.018;2023-05-16T01:46:21;23.83;;;13.83;;
6987;SDS011;3534;49.960;8.018;2023-05-16T01:48:53;28.93;;;13.20;;
6987;SDS011;3534;49.960;8.018;2023-05-16T01:51:26;20.67;;;13.60;;
6987;SDS011;3534;49.960;8.018;2023-05-16T01:53:57;25.40;;;13.20;;
6987;SDS011;3534;49.960;8.018;2023-05-16T01:56:31;22.93;;;13.60;;
6987;SDS011;3534;49.960;8.018;2023-05-16T01:58:58;27.37;;;14.80;;
6987;SDS011;3534;49.960;8.018;2023-05-16T02:01:25;28.13;;;13.80;;
6987;SDS011;3534;49.960;8.018;2023-05-16T02:03:52;28.07;;;15.00;;
6987;SDS011;3534;49.960;8.018;2023-05-16T02:06:19;20.00;;;12.60;;
6987;SDS011;3534;49.960;8.018;2023-05-16T02:08:46;19.77;;;12.90;;
6987;SDS011;3534;49.960;8.018;2023-05-16T02:11:13;18.83;;;13.70;;
6987;SDS011;3534;49.960;8.018;2023-05-16T02:13:41;25.37;;;12.53;;
6987;SDS011;3534;49.960;8.018;2023-05-16T02:16:09;34.50;;;14.90;;
6987;SDS011;3534;49.960;8.018;2023-05-16T02:18:35;24.83;;;14.70;;
6987;SDS011;3534;49.960;8.018;2023-05-16T02:21:02;19.80;;;13.50;;
6987;SDS011;3534;49.960;8.018;2023-05-16T02:23:29;23.13;;;14.83;;
6987;SDS011;3534;49.960;8.018;2023-05-16T02:25:56;24.40;;;14.60;;
6987;SDS011;3534;49.960;8.018;2023-05-16T02:28:22;24.03;;;14.60;;
6987;SDS011;3534;49.960;8.018;2023-05-16T02:30:56;27.07;;;14.90;;
6987;SDS011;3534;49.960;8.018;2023-05-16T02:33:23;26.23;;;13.80;;
6987;SDS011;3534;49.960;8.018;2023-05-16T02:35:49;22.07;;;13.87;;
6987;SDS011;3534;49.960;8.018;2023-05-16T02:38:16;23.00;;;12.80;;
6987;SDS011;3534;49.960;8.018;2023-05-16T02:40:44;25.63;;;12.67;;
6987;SDS011;3534;49.960;8.018;2023-05-16T02:43:11;21.67;;;12.67;;
6987;SDS011;3534;49.960;8.018;2023-05-16T02:45:38;22.93;;;11.80;;
6987;SDS011;3534;49.960;8.018;2023-05-16T02:48:06;16.87;;;9.40;;
6987;SDS011;3534;49.960;8.018;2023-05-16T02:50:33;13.57;;;9.27;;
6987;SDS011;3534;49.960;8.018;2023-05-16T02:53:00;16.30;;;8.97;;
6987;SDS011;3534;49.960;8.018;2023-05-16T02:55:26;8.10;;;6.87;;
6987;SDS011;3534;49.960;8.018;2023-05-16T02:57:53;10.50;;;6.53;;
6987;SDS011;3534;49.960;8.018;2023-05-16T03:00:20;12.63;;;6.00;;
6987;SDS011;3534;49.960;8.018;2023-05-16T03:02:47;11.43;;;6.50;;
6987;SDS011;3534;49.960;8.018;2023-05-16T03:05:15;9.53;;;5.77;;
6987;SDS011;3534;49.960;8.018;2023-05-16T03:07:42;5.90;;;5.10;;
6987;SDS011;3534;49.960;8.018;2023-05-16T03:10:09;10.00;;;5.37;;
6987;SDS011;3534;49.960;8.018;2023-05-16T03:12:35;9.40;;;4.97;;
6987;SDS011;3534;49.960;8.018;2023-05-16T03:15:02;5.33;;;4.27;;
6987;SDS011;3534;49.960;8.018;2023-05-16T03:17:30;5.10;;;4.13;;
6987;SDS011;3534;49.960;8.018;2023-05-16T03:19:56;4.60;;;3.80;;
6987;SDS011;3534;49.960;8.018;2023-05-16T03:22:24;6.43;;;3.20;;
6987;SDS011;3534;49.960;8.018;2023-05-16T03:24:51;5.53;;;3.80;;
6987;SDS011;3534;49.960;8.018;2023-05-16T03:27:17;3.53;;;3.20;;
6987;SDS011;3534;49.960;8.018;2023-05-16T03:29:44;4.47;;;3.00;;
6987;SDS011;3534;49.960;8.018;2023-05-16T03:32:11;4.10;;;2.73;;
6987;SDS011;3534;49.960;8.018;2023-05-16T03:34:37;4.83;;;2.80;;
6987;SDS011;3534;49.960;8.018;2023-05-16T03:37:05;2.37;;;2.17;;
6987;SDS011;3534;49.960;8.018;2023-05-16T03:39:33;2.13;;;1.80;;
6987;SDS011;3534;49.960;8.018;2023-05-16T03:41:59;1.87;;;1.77;;
6987;SDS011;3534;49.960;8.018;2023-05-16T03:44:26;2.10;;;1.77;;
6987;SDS011;3534;49.960;8.018;2023-05-16T03:46:53;1.60;;;1.50;;
6987;SDS011;3534;49.960;8.018;2023-05-16T03:49:22;3.73;;;1.43;;
6987;SDS011;3534;49.960;8.018;2023-05-16T03:51:51;2.10;;;1.47;;
6987;SDS011;3534;49.960;8.018;2023-05-16T03:54:18;1.20;;;1.10;;
6987;SDS011;3534;49.960;8.018;2023-05-16T03:56:46;1.93;;;1.27;;
6987;SDS011;3534;49.960;8.018;2023-05-16T03:59:12;1.10;;;1.00;;
6987;SDS011;3534;49.960;8.018;2023-05-16T04:01:39;3.93;;;1.17;;
6987;SDS011;3534;49.960;8.018;2023-05-16T04:04:06;1.53;;;1.43;;
6987;SDS011;3534;49.960;8.018;2023-05-16T04:06:32;1.17;;;1.00;;
6987;SDS011;3534;49.960;8.018;2023-05-16T04:08:59;1.73;;;1.17;;
6987;SDS011;3534;49.960;8.018;2023-05-16T04:11:26;0.90;;;0.87;;
6987;SDS011;3534;49.960;8.018;2023-05-16T04:13:54;1.77;;;1.20;;
6987;SDS011;3534;49.960;8.018;2023-05-16T04:16:20;3.90;;;1.00;;
6987;SDS011;3534;49.960;8.018;2023-05-16T04:18:47;1.47;;;0.90;;
6987;SDS011;3534;49.960;8.018;2023-05-16T04:21:14;1.40;;;1.30;;
6987;SDS011;3534;49.960;8.018;2023-05-16T04:23:40;1.50;;;1.20;;
6987;SDS011;3534;49.960;8.018;2023-05-16T04:26:07;5.13;;;1.40;;
6987;SDS011;3534;49.960;8.018;2023-05-16T04:28:34;0.90;;;0.90;;
6987;SDS011;3534;49.960;8.018;2023-05-16T04:31:02;1.23;;;1.13;;
6987;SDS011;3534;49.960;8.018;2023-05-16T04:33:29;1.37;;;1.00;;
6987;SDS011;3534;49.960;8.018;2023-05-16T04:35:55;1.53;;;1.20;;
6987;SDS011;3534;49.960;8.018;2023-05-16T04:38:23;1.17;;;1.07;;
6987;SDS011;3534;49.960;8.018;2023-05-16T04:40:49;2.00;;;1.10;;
6987;SDS011;3534;49.960;8.018;2023-05-16T04:43:16;1.60;;;1.10;;
6987;SDS011;3534;49.960;8.018;2023-05-16T04:45:43;1.10;;;1.00;;
6987;SDS011;3534;49.960;8.018;2023-05-16T04:48:12;0.73;;;0.73;;
6987;SDS011;3534;49.960;8.018;2023-05-16T04:50:39;2.10;;;1.00;;
6987;SDS011;3534;49.960;8.018;2023-05-16T04:53:05;0.83;;;0.83;;
6987;SDS011;3534;49.960;8.018;2023-05-16T04:55:32;1.10;;;1.00;;
6987;SDS011;3534;49.960;8.018;2023-05-16T04:57:59;0.80;;;0.80;;
6987;SDS011;3534;49.960;8.018;2023-05-16T05:00:25;2.00;;;1.10;;
6987;SDS011;3534;49.960;8.018;2023-05-16T05:02:52;1.00;;;0.80;;
6987;SDS011;3534;49.960;8.018;2023-05-16T05:05:20;3.53;;;1.00;;
6987;SDS011;3534;49.960;8.018;2023-05-16T05:07:47;0.80;;;0.70;;
6987;SDS011;3534;49.960;8.018;2023-05-16T05:10:13;0.90;;;0.73;;
6987;SDS011;3534;49.960;8.018;2023-05-16T05:12:40;3.33;;;0.70;;
6987;SDS011;3534;49.960;8.018;2023-05-16T05:15:07;0.77;;;0.77;;
6987;SDS011;3534;49.960;8.018;2023-05-16T05:17:34;1.10;;;0.80;;
6987;SDS011;3534;49.960;8.018;2023-05-16T05:20:01;0.93;;;0.83;;
6987;SDS011;3534;49.960;8.018;2023-05-16T05:22:32;2.80;;;0.90;;
6987;SDS011;3534;49.960;8.018;2023-05-16T05:24:59;0.70;;;0.60;;
6987;SDS011;3534;49.960;8.018;2023-05-16T05:27:26;1.53;;;1.07;;
6987;SDS011;3534;49.960;8.018;2023-05-16T05:29:52;0.70;;;0.53;;
6987;SDS011;3534;49.960;8.018;2023-05-16T05:32:19;1.07;;;0.97;;
6987;SDS011;3534;49.960;8.018;2023-05-16T05:34:46;1.13;;;1.00;;
6987;SDS011;3534;49.960;8.018;2023-05-16T05:37:13;1.80;;;0.73;;
6987;SDS011;3534;49.960;8.018;2023-05-16T05:39:41;0.80;;;0.67;;
6987;SDS011;3534;49.960;8.018;2023-05-16T05:42:08;1.00;;;0.70;;
6987;SDS011;3534;49.960;8.018;2023-05-16T05:44:35;8.00;;;1.77;;
6987;SDS011;3534;49.960;8.018;2023-05-16T05:47:02;0.87;;;0.80;;
6987;SDS011;3534;49.960;8.018;2023-05-16T05:49:29;1.20;;;1.10;;
6987;SDS011;3534;49.960;8.018;2023-05-16T05:51:56;2.37;;;0.87;;
6987;SDS011;3534;49.960;8.018;2023-05-16T05:54:23;1.30;;;1.07;;
6987;SDS011;3534;49.960;8.018;2023-05-16T05:56:52;1.37;;;1.00;;
6987;SDS011;3534;49.960;8.018;2023-05-16T05:59:18;1.10;;;1.00;;
6987;SDS011;3534;49.960;8.018;2023-05-16T06:01:45;2.13;;;1.20;;
6987;SDS011;3534;49.960;8.018;2023-05-16T06:04:16;2.83;;;1.00;;
6987;SDS011;3534;49.960;8.018;2023-05-16T06:06:43;0.90;;;0.90;;
6987;SDS011;3534;49.960;8.018;2023-05-16T06:09:10;1.00;;;0.70;;
6987;SDS011;3534;49.960;8.018;2023-05-16T06:11:37;0.93;;;0.83;;
6987;SDS011;3534;49.960;8.018;2023-05-16T06:14:06;0.70;;;0.57;;
6987;SDS011;3534;49.960;8.018;2023-05-16T06:16:32;1.10;;;0.90;;
6987;SDS011;3534;49.960;8.018;2023-05-16T06:18:59;0.90;;;0.90;;
6987;SDS011;3534;49.960;8.018;2023-05-16T06:21:26;1.63;;;0.67;;
6987;SDS011;3534;49.960;8.018;2023-05-16T06:23:52;0.73;;;0.60;;
6987;SDS011;3534;49.960;8.018;2023-05-16T06:26:19;0.80;;;0.70;;
6987;SDS011;3534;49.960;8.018;2023-05-16T06:28:46;0.73;;;0.63;;
6987;SDS011;3534;49.960;8.018;2023-05-16T06:31:14;0.73;;;0.70;;
6987;SDS011;3534;49.960;8.018;2023-05-16T06:33:41;0.80;;;0.67;;
6987;SDS011;3534;49.960;8.018;2023-05-16T06:36:08;0.80;;;0.60;;
6987;SDS011;3534;49.960;8.018;2023-05-16T06:38:34;0.60;;;0.50;;
6987;SDS011;3534;49.960;8.018;2023-05-16T06:41:01;0.93;;;0.53;;
6987;SDS011;3534;49.960;8.018;2023-05-16T06:43:28;2.70;;;0.80;;
6987;SDS011;3534;49.960;8.018;2023-05-16T06:45:54;1.13;;;0.70;;
6987;SDS011;3534;49.960;8.018;2023-05-16T06:48:22;0.70;;;0.63;;
6987;SDS011;3534;49.960;8.018;2023-05-16T06:50:49;1.27;;;0.50;;
6987;SDS011;3534;49.960;8.018;2023-05-16T06:53:16;0.70;;;0.60;;
6987;SDS011;3534;49.960;8.018;2023-05-16T06:55:43;1.87;;;0.80;;
6987;SDS011;3534;49.960;8.018;2023-05-16T06:58:10;0.83;;;0.60;;
6987;SDS011;3534;49.960;8.018;2023-05-16T07:00:37;0.80;;;0.60;;
6987;SDS011;3534;49.960;8.018;2023-05-16T07:03:03;0.70;;;0.50;;
6987;SDS011;3534;49.960;8.018;2023-05-16T07:05:32;0.60;;;0.50;;
6987;SDS011;3534;49.960;8.018;2023-05-16T07:07:58;0.80;;;0.53;;
6987;SDS011;3534;49.960;8.018;2023-05-16T07:10:25;0.83;;;0.60;;
6987;SDS011;3534;49.960;8.018;2023-05-16T07:12:52;4.33;;;0.50;;
6987;SDS011;3534;49.960;8.018;2023-05-16T07:15:19;0.70;;;0.50;;
6987;SDS011;3534;49.960;8.018;2023-05-16T07:17:46;0.60;;;0.40;;
6987;SDS011;3534;49.960;8.018;2023-05-16T07:20:12;1.00;;;0.63;;
6987;SDS011;3534;49.960;8.018;2023-05-16T07:22:41;2.97;;;0.43;;
6987;SDS011;3534;49.960;8.018;2023-05-16T07:25:08;0.83;;;0.50;;
6987;SDS011;3534;49.960;8.018;2023-05-16T07:27:36;0.87;;;0.47;;
6987;SDS011;3534;49.960;8.018;2023-05-16T07:30:05;0.60;;;0.50;;
6987;SDS011;3534;49.960;8.018;2023-05-16T07:32:33;0.70;;;0.60;;
6987;SDS011;3534;49.960;8.018;2023-05-16T07:35:00;0.70;;;0.50;;
6987;SDS011;3534;49.960;8.018;2023-05-16T07:37:27;0.70;;;0.40;;
6987;SDS011;3534;49.960;8.018;2023-05-16T07:39:55;0.60;;;0.50;;
6987;SDS011;3534;49.960;8.018;2023-05-16T07:42:22;0.60;;;0.50;;
6987;SDS011;3534;49.960;8.018;2023-05-16T07:44:48;1.13;;;0.50;;
6987;SDS011;3534;49.960;8.018;2023-05-16T07:47:15;0.60;;;0.40;;
6987;SDS011;3534;49.960;8.018;2023-05-16T07:49:42;7.93;;;0.50;;
6987;SDS011;3534;49.960;8.018;2023-05-16T07:52:08;0.73;;;0.50;;
6987;SDS011;3534;49.960;8.018;2023-05-16T07:54:35;0.70;;;0.53;;
6987;SDS011;3534;49.960;8.018;2023-05-16T07:57:03;0.60;;;0.40;;
6987;SDS011;3534;49.960;8.018;2023-05-16T07:59:30;0.90;;;0.50;;
6987;SDS011;3534;49.960;8.018;2023-05-16T08:01:57;0.70;;;0.60;;
6987;SDS011;3534;49.960;8.018;2023-05-16T08:04:23;0.80;;;0.67;;
6987;SDS011;3534;49.960;8.018;2023-05-16T08:06:50;12.60;;;0.70;;
6987;SDS011;3534;49.960;8.018;2023-05-16T08:09:17;0.60;;;0.40;;
6987;SDS011;3534;49.960;8.018;2023-05-16T08:11:44;1.47;;;0.80;;
6987;SDS011;3534;49.960;8.018;2023-05-16T08:14:12;0.60;;;0.60;;
6987;SDS011;3534;49.960;8.018;2023-05-16T08:16:38;1.23;;;0.70;;
6987;SDS011;3534;49.960;8.018;2023-05-16T08:19:05;3.53;;;0.70;;
6987;SDS011;3534;49.960;8.018;2023-05-16T08:21:32;6.10;;;0.93;;
6987;SDS011;3534;49.960;8.018;2023-05-16T08:23:59;0.70;;;0.57;;
6987;SDS011;3534;49.960;8.018;2023-05-16T08:26:25;2.30;;;0.60;;
6987;SDS011;3534;49.960;8.018;2023-05-16T08:28:52;4.57;;;0.80;;
6987;SDS011;3534;49.960;8.018;2023-05-16T08:31:20;1.37;;;0.70;;
6987;SDS011;3534;49.960;8.018;2023-05-16T08:33:47;3.30;;;0.80;;
6987;SDS011;3534;49.960;8.018;2023-05-16T08:36:13;0.80;;;0.60;;
6987;SDS011;3534;49.960;8.018;2023-05-16T08:38:43;1.10;;;0.60;;
6987;SDS011;3534;49.960;8.018;2023-05-16T08:41:10;0.70;;;0.50;;
6987;SDS011;3534;49.960;8.018;2023-05-16T08:43:37;2.07;;;0.93;;
6987;SDS011;3534;49.960;8.018;2023-05-16T08:46:05;2.20;;;0.70;;
6987;SDS011;3534;49.960;8.018;2023-05-16T08:48:34;1.97;;;1.00;;
6987;SDS011;3534;49.960;8.018;2023-05-16T08:51:02;1.20;;;1.00;;
6987;SDS011;3534;49.960;8.018;2023-05-16T08:53:35;1.80;;;1.23;;
6987;SDS011;3534;49.960;8.018;2023-05-16T08:56:05;3.17;;;1.10;;
6987;SDS011;3534;49.960;8.018;2023-05-16T08:58:33;1.60;;;1.23;;
6987;SDS011;3534;49.960;8.018;2023-05-16T09:01:00;1.97;;;1.53;;
6987;SDS011;3534;49.960;8.018;2023-05-16T09:03:34;4.43;;;2.00;;
6987;SDS011;3534;49.960;8.018;2023-05-16T09:06:00;4.10;;;2.00;;
6987;SDS011;3534;49.960;8.018;2023-05-16T09:08:28;22.83;;;2.47;;
6987;SDS011;3534;49.960;8.018;2023-05-16T09:10:55;6.20;;;1.80;;
6987;SDS011;3534;49.960;8.018;2023-05-16T09:13:21;5.33;;;2.10;;
6987;SDS011;3534;49.960;8.018;2023-05-16T09:18:35;3.17;;;2.13;;
6987;SDS011;3534;49.960;8.018;2023-05-16T09:21:02;10.40;;;2.23;;
6987;SDS011;3534;49.960;8.018;2023-05-16T09:23:29;10.53;;;2.50;;
6987;SDS011;3534;49.960;8.018;2023-05-16T09:25:56;4.10;;;2.10;;
6987;SDS011;3534;49.960;8.018;2023-05-16T09:28:24;4.60;;;2.33;;
6987;SDS011;3534;49.960;8.018;2023-05-16T09:30:51;4.00;;;1.97;;
6987;SDS011;3534;49.960;8.018;2023-05-16T09:33:19;9.93;;;2.00;;
6987;SDS011;3534;49.960;8.018;2023-05-16T09:35:54;7.13;;;2.23;;
6987;SDS011;3534;49.960;8.018;2023-05-16T09:38:22;7.47;;;2.20;;
6987;SDS011;3534;49.960;8.018;2023-05-16T09:40:50;9.83;;;2.47;;
6987;SDS011;3534;49.960;8.018;2023-05-16T09:43:17;5.37;;;2.10;;
6987;SDS011;3534;49.960;8.018;2023-05-16T09:45:47;2.50;;;1.60;;
6987;SDS011;3534;49.960;8.018;2023-05-16T09:48:14;5.80;;;1.80;;
6987;SDS011;3534;49.960;8.018;2023-05-16T09:50:45;6.53;;;2.17;;
6987;SDS011;3534;49.960;8.018;2023-05-16T09:53:15;6.37;;;1.93;;
6987;SDS011;3534;49.960;8.018;2023-05-16T09:55:42;8.33;;;2.00;;
6987;SDS011;3534;49.960;8.018;2023-05-16T09:58:09;7.00;;;2.30;;
6987;SDS011;3534;49.960;8.018;2023-05-16T10:00:36;6.07;;;2.00;;
6987;SDS011;3534;49.960;8.018;2023-05-16T10:03:03;4.00;;;1.57;;
6987;SDS011;3534;49.960;8.018;2023-05-16T10:05:30;8.13;;;2.03;;
6987;SDS011;3534;49.960;8.018;2023-05-16T10:07:57;4.60;;;2.10;;
6987;SDS011;3534;49.960;8.018;2023-05-16T10:10:25;3.40;;;1.80;;
6987;SDS011;3534;49.960;8.018;2023-05-16T10:12:52;7.40;;;2.20;;
6987;SDS011;3534;49.960;8.018;2023-05-16T10:15:23;6.43;;;1.90;;
6987;SDS011;3534;49.960;8.018;2023-05-16T10:17:51;7.83;;;1.70;;
6987;SDS011;3534;49.960;8.018;2023-05-16T10:20:20;5.07;;;1.57;;
6987;SDS011;3534;49.960;8.018;2023-05-16T10:22:48;7.70;;;2.20;;
6987;SDS011;3534;49.960;8.018;2023-05-16T10:25:19;6.93;;;1.83;;
6987;SDS011;3534;49.960;8.018;2023-05-16T10:27:53;5.00;;;1.50;;
6987;SDS011;3534;49.960;8.018;2023-05-16T10:30:21;3.73;;;1.73;;
6987;SDS011;3534;49.960;8.018;2023-05-16T10:32:47;10.03;;;1.60;;
6987;SDS011;3534;49.960;8.018;2023-05-16T10:35:16;5.20;;;1.60;;
6987;SDS011;3534;49.960;8.018;2023-05-16T10:37:44;4.37;;;1.50;;
6987;SDS011;3534;49.960;8.018;2023-05-16T10:40:12;6.93;;;1.40;;
6987;SDS011;3534;49.960;8.018;2023-05-16T10:42:44;3.67;;;1.30;;
6987;SDS011;3534;49.960;8.018;2023-05-16T10:45:20;11.30;;;2.03;;
6987;SDS011;3534;49.960;8.018;2023-05-16T10:47:54;8.00;;;1.60;;
6987;SDS011;3534;49.960;8.018;2023-05-16T10:50:31;8.13;;;1.73;;
6987;SDS011;3534;49.960;8.018;2023-05-16T10:53:12;5.77;;;1.47;;
6987;SDS011;3534;49.960;8.018;2023-05-16T10:55:39;8.90;;;1.37;;
6987;SDS011;3534;49.960;8.018;2023-05-16T10:58:11;6.63;;;1.40;;
6987;SDS011;3534;49.960;8.018;2023-05-16T11:00:38;3.53;;;1.40;;
6987;SDS011;3534;49.960;8.018;2023-05-16T11:03:05;9.33;;;2.00;;
6987;SDS011;3534;49.960;8.018;2023-05-16T11:05:49;3.03;;;1.07;;
6987;SDS011;3534;49.960;8.018;2023-05-16T11:08:18;6.10;;;1.37;;
6987;SDS011;3534;49.960;8.018;2023-05-16T11:10:44;2.27;;;1.20;;
6987;SDS011;3534;49.960;8.018;2023-05-16T11:13:12;7.03;;;1.53;;
6987;SDS011;3534;49.960;8.018;2023-05-16T11:15:43;3.50;;;1.50;;
6987;SDS011;3534;49.960;8.018;2023-05-16T11:18:13;4.80;;;1.30;;
6987;SDS011;3534;49.960;8.018;2023-05-16T11:20:40;2.70;;;1.47;;
6987;SDS011;3534;49.960;8.018;2023-05-16T11:23:16;4.50;;;1.83;;
6987;SDS011;3534;49.960;8.018;2023-05-16T11:25:45;6.47;;;1.60;;
6987;SDS011;3534;49.960;8.018;2023-05-16T11:28:16;3.67;;;1.50;;
6987;SDS011;3534;49.960;8.018;2023-05-16T11:30:44;3.87;;;1.40;;
6987;SDS011;3534;49.960;8.018;2023-05-16T11:33:13;3.83;;;1.13;;
6987;SDS011;3534;49.960;8.018;2023-05-16T11:35:40;8.97;;;1.60;;
6987;SDS011;3534;49.960;8.018;2023-05-16T11:38:10;6.20;;;1.30;;
6987;SDS011;3534;49.960;8.018;2023-05-16T11:40:40;5.50;;;1.10;;
6987;SDS011;3534;49.960;8.018;2023-05-16T11:43:08;5.60;;;1.60;;
6987;SDS011;3534;49.960;8.018;2023-05-16T11:45:36;9.23;;;1.43;;
6987;SDS011;3534;49.960;8.018;2023-05-16T11:48:03;5.37;;;1.43;;
6987;SDS011;3534;49.960;8.018;2023-05-16T11:50:33;4.57;;;1.00;;
6987;SDS011;3534;49.960;8.018;2023-05-16T11:53:00;2.00;;;0.87;;
6987;SDS011;3534;49.960;8.018;2023-05-16T11:55:27;9.07;;;1.10;;
6987;SDS011;3534;49.960;8.018;2023-05-16T11:57:56;9.50;;;1.30;;
6987;SDS011;3534;49.960;8.018;2023-05-16T12:00:23;3.47;;;1.10;;
6987;SDS011;3534;49.960;8.018;2023-05-16T12:02:53;9.13;;;2.13;;
6987;SDS011;3534;49.960;8.018;2023-05-16T12:05:25;3.67;;;1.20;;
6987;SDS011;3534;49.960;8.018;2023-05-16T12:07:54;2.87;;;1.20;;
6987;SDS011;3534;49.960;8.018;2023-05-16T12:10:21;3.17;;;1.40;;
6987;SDS011;3534;49.960;8.018;2023-05-16T12:12:48;6.73;;;1.90;;
6987;SDS011;3534;49.960;8.018;2023-05-16T12:15:17;5.43;;;1.80;;
6987;SDS011;3534;49.960;8.018;2023-05-16T12:17:45;6.20;;;1.10;;
6987;SDS011;3534;49.960;8.018;2023-05-16T12:20:14;4.70;;;1.33;;
6987;SDS011;3534;49.960;8.018;2023-05-16T12:22:41;4.73;;;0.97;;
6987;SDS011;3534;49.960;8.018;2023-05-16T12:25:20;5.23;;;1.20;;
6987;SDS011;3534;49.960;8.018;2023-05-16T12:27:47;6.83;;;1.77;;
6987;SDS011;3534;49.960;8.018;2023-05-16T12:30:15;7.33;;;1.10;;
6987;SDS011;3534;49.960;8.018;2023-05-16T12:32:42;5.43;;;1.60;;
6987;SDS011;3534;49.960;8.018;2023-05-16T12:35:09;2.03;;;1.07;;
6987;SDS011;3534;49.960;8.018;2023-05-16T12:37:38;5.97;;;1.40;;
6987;SDS011;3534;49.960;8.018;2023-05-16T12:40:05;2.73;;;0.93;;
6987;SDS011;3534;49.960;8.018;2023-05-16T12:42:36;4.17;;;1.60;;
6987;SDS011;3534;49.960;8.018;2023-05-16T12:45:03;3.00;;;1.10;;
6987;SDS011;3534;49.960;8.018;2023-05-16T12:47:34;5.63;;;1.07;;
6987;SDS011;3534;49.960;8.018;2023-05-16T12:50:01;8.07;;;1.10;;
6987;SDS011;3534;49.960;8.018;2023-05-16T12:52:28;6.70;;;1.40;;
6987;SDS011;3534;49.960;8.018;2023-05-16T12:54:56;5.17;;;1.50;;
6987;SDS011;3534;49.960;8.018;2023-05-16T12:57:23;12.80;;;1.63;;
6987;SDS011;3534;49.960;8.018;2023-05-16T12:59:50;3.63;;;1.30;;
6987;SDS011;3534;49.960;8.018;2023-05-16T13:02:16;3.97;;;0.90;;
6987;SDS011;3534;49.960;8.018;2023-05-16T13:04:43;2.70;;;1.00;;
6987;SDS011;3534;49.960;8.018;2023-05-16T13:07:10;2.37;;;0.90;;
6987;SDS011;3534;49.960;8.018;2023-05-16T13:09:37;3.03;;;1.30;;
6987;SDS011;3534;49.960;8.018;2023-05-16T13:12:07;2.87;;;0.90;;
6987;SDS011;3534;49.960;8.018;2023-05-16T13:14:34;4.50;;;1.57;;
6987;SDS011;3534;49.960;8.018;2023-05-16T13:17:00;5.27;;;1.17;;
6987;SDS011;3534;49.960;8.018;2023-05-16T13:19:28;3.23;;;1.10;;
6987;SDS011;3534;49.960;8.018;2023-05-16T13:21:55;11.70;;;1.77;;
6987;SDS011;3534;49.960;8.018;2023-05-16T13:24:22;4.13;;;0.83;;
6987;SDS011;3534;49.960;8.018;2023-05-16T13:26:49;1.73;;;0.87;;
6987;SDS011;3534;49.960;8.018;2023-05-16T13:29:17;5.37;;;1.43;;
6987;SDS011;3534;49.960;8.018;2023-05-16T13:31:43;2.70;;;0.77;;
6987;SDS011;3534;49.960;8.018;2023-05-16T13:34:10;2.87;;;1.13;;
6987;SDS011;3534;49.960;8.018;2023-05-16T13:36:37;5.30;;;1.40;;
6987;SDS011;3534;49.960;8.018;2023-05-16T13:39:03;4.13;;;0.90;;
6987;SDS011;3534;49.960;8.018;2023-05-16T13:41:30;5.00;;;1.07;;
6987;SDS011;3534;49.960;8.018;2023-05-16T13:44:01;3.10;;;1.00;;
6987;SDS011;3534;49.960;8.018;2023-05-16T13:46:29;3.87;;;1.23;;
6987;SDS011;3534;49.960;8.018;2023-05-16T13:48:56;4.50;;;1.10;;
6987;SDS011;3534;49.960;8.018;2023-05-16T13:51:23;4.53;;;1.37;;
6987;SDS011;3534;49.960;8.018;2023-05-16T13:53:49;4.00;;;1.30;;
6987;SDS011;3534;49.960;8.018;2023-05-16T13:56:16;3.03;;;1.00;;
6987;SDS011;3534;49.960;8.018;2023-05-16T13:58:43;3.93;;;1.10;;
6987;SDS011;3534;49.960;8.018;2023-05-16T14:01:10;3.97;;;1.07;;
6987;SDS011;3534;49.960;8.018;2023-05-16T14:03:38;2.80;;;0.80;;
6987;SDS011;3534;49.960;8.018;2023-05-16T14:06:06;3.77;;;0.97;;
6987;SDS011;3534;49.960;8.018;2023-05-16T14:08:32;3.90;;;1.17;;
6987;SDS011;3534;49.960;8.018;2023-05-16T14:10:59;5.57;;;0.97;;
6987;SDS011;3534;49.960;8.018;2023-05-16T14:13:26;9.70;;;1.00;;
6987;SDS011;3534;49.960;8.018;2023-05-16T14:15:53;3.77;;;0.90;;
6987;SDS011;3534;49.960;8.018;2023-05-16T14:18:19;3.73;;;1.00;;
6987;SDS011;3534;49.960;8.018;2023-05-16T14:20:47;3.80;;;0.70;;
6987;SDS011;3534;49.960;8.018;2023-05-16T14:23:15;2.80;;;0.93;;
6987;SDS011;3534;49.960;8.018;2023-05-16T14:25:42;5.07;;;1.00;;
6987;SDS011;3534;49.960;8.018;2023-05-16T14:28:08;2.90;;;1.00;;
6987;SDS011;3534;49.960;8.018;2023-05-16T14:30:35;4.07;;;0.80;;
6987;SDS011;3534;49.960;8.018;2023-05-16T14:33:02;1.30;;;0.77;;
6987;SDS011;3534;49.960;8.018;2023-05-16T14:35:30;2.97;;;1.10;;
6987;SDS011;3534;49.960;8.018;2023-05-16T14:37:59;3.73;;;0.80;;
6987;SDS011;3534;49.960;8.018;2023-05-16T14:40:25;5.33;;;0.90;;
6987;SDS011;3534;49.960;8.018;2023-05-16T14:42:52;3.43;;;0.83;;
6987;SDS011;3534;49.960;8.018;2023-05-16T14:45:18;3.67;;;0.80;;
6987;SDS011;3534;49.960;8.018;2023-05-16T14:47:45;5.83;;;1.57;;
6987;SDS011;3534;49.960;8.018;2023-05-16T14:50:12;3.47;;;0.90;;
6987;SDS011;3534;49.960;8.018;2023-05-16T14:52:39;2.90;;;1.43;;
6987;SDS011;3534;49.960;8.018;2023-05-16T14:55:07;2.87;;;1.17;;
6987;SDS011;3534;49.960;8.018;2023-05-16T14:57:34;4.40;;;1.00;;
6987;SDS011;3534;49.960;8.018;2023-05-16T15:00:00;2.70;;;1.10;;
6987;SDS011;3534;49.960;8.018;2023-05-16T15:02:28;4.00;;;1.03;;
6987;SDS011;3534;49.960;8.018;2023-05-16T15:04:54;3.20;;;1.20;;
6987;SDS011;3534;49.960;8.018;2023-05-16T15:07:21;3.73;;;1.33;;
6987;SDS011;3534;49.960;8.018;2023-05-16T15:09:47;5.60;;;1.27;;
6987;SDS011;3534;49.960;8.018;2023-05-16T15:12:16;4.40;;;1.00;;
6987;SDS011;3534;49.960;8.018;2023-05-16T15:14:42;4.80;;;1.23;;
6987;SDS011;3534;49.960;8.018;2023-05-16T15:17:09;3.53;;;1.13;;